createdAt,value
2023-01-11T00:00:20.392Z,66.37
2023-01-11T00:01:22.053Z,66.17
2023-01-11T00:02:23.748Z,65.55
2023-01-11T00:03:25.428Z,65.42
2023-01-11T00:04:30.430Z,65.87
2023-01-11T00:05:36.789Z,65.72
2023-01-11T00:06:38.400Z,65.63
2023-01-11T00:07:41.019Z,65.95
2023-01-11T00:08:42.635Z,65.85
2023-01-11T00:09:47.777Z,65.52
2023-01-11T00:10:49.418Z,65.24
2023-01-11T00:11:51.029Z,65.40
2023-01-11T00:12:52.664Z,65.02
2023-01-11T00:13:54.250Z,65.25
2023-01-11T00:14:55.862Z,65.13
2023-01-11T00:15:57.556Z,64.66
2023-01-11T00:16:59.837Z,64.62
2023-01-11T00:18:03.032Z,64.67
2023-01-11T00:19:04.949Z,63.15
2023-01-11T00:20:07.551Z,63.50
2023-01-11T00:21:09.356Z,63.28
2023-01-11T00:22:11.017Z,63.34
2023-01-11T00:23:13.212Z,62.77
2023-01-11T00:24:14.803Z,63.38
2023-01-11T00:25:16.455Z,63.12
2023-01-11T00:26:18.096Z,63.46
2023-01-11T00:27:19.831Z,64.23
2023-01-11T00:28:21.461Z,63.19
2023-01-11T00:29:23.071Z,63.95
2023-01-11T00:30:25.054Z,63.82
2023-01-11T00:31:26.766Z,63.29
2023-01-11T00:32:28.716Z,63.38
2023-01-11T00:33:30.397Z,62.82
2023-01-11T00:34:31.976Z,63.25
2023-01-11T00:35:33.622Z,63.57
2023-01-11T00:36:35.193Z,62.59
2023-01-11T00:37:36.955Z,62.88
2023-01-11T00:38:44.415Z,62.72
2023-01-11T00:39:46.005Z,62.12
2023-01-11T00:40:47.579Z,62.16
2023-01-11T00:42:07.800Z,62.45
2023-01-11T00:43:28.413Z,62.03
2023-01-11T00:44:48.880Z,61.89
2023-01-11T00:46:09.001Z,61.45
2023-01-11T00:47:34.009Z,61.73
2023-01-11T00:48:35.604Z,62.46
2023-01-11T00:49:37.232Z,62.37
2023-01-11T00:50:40.833Z,62.71
2023-01-11T00:51:42.423Z,61.90
2023-01-11T00:52:44.056Z,61.83
2023-01-11T00:53:48.412Z,62.43
2023-01-11T00:54:50.118Z,62.44
2023-01-11T00:55:51.742Z,62.67
2023-01-11T00:56:53.344Z,62.33
2023-01-11T00:57:55.297Z,62.68
2023-01-11T00:58:56.880Z,62.18
2023-01-11T00:59:58.481Z,62.00
2023-01-11T01:01:06.336Z,61.72
2023-01-11T01:02:09.470Z,62.02
2023-01-11T01:03:11.132Z,61.42
2023-01-11T01:04:12.754Z,61.76
2023-01-11T01:05:14.694Z,61.41
2023-01-11T01:06:16.320Z,61.84
2023-01-11T01:07:17.884Z,61.07
2023-01-11T01:08:19.571Z,60.93
2023-01-11T01:09:21.204Z,61.56
2023-01-11T01:10:22.940Z,61.66
2023-01-11T01:11:24.704Z,61.87
2023-01-11T01:12:45.190Z,61.10
2023-01-11T01:14:06.066Z,61.28
2023-01-11T01:15:08.236Z,61.37
2023-01-11T01:16:09.967Z,61.45
2023-01-11T01:17:11.574Z,61.51
2023-01-11T01:18:13.277Z,61.68
2023-01-11T01:19:14.982Z,61.25
2023-01-11T01:20:16.618Z,60.79
2023-01-11T01:21:18.220Z,60.96
2023-01-11T01:22:19.811Z,60.39
2023-01-11T01:23:21.381Z,59.68
2023-01-11T01:24:23.366Z,60.17
2023-01-11T01:25:25.106Z,60.06
2023-01-11T01:26:26.763Z,60.05
2023-01-11T01:27:28.353Z,59.77
2023-01-11T01:28:29.950Z,59.90
2023-01-11T01:29:31.761Z,59.87
2023-01-11T01:30:33.859Z,59.88
2023-01-11T01:31:35.596Z,60.65
2023-01-11T01:32:37.243Z,60.35
2023-01-11T01:33:39.086Z,60.33
2023-01-11T01:34:40.701Z,59.58
2023-01-11T01:35:42.318Z,60.05
2023-01-11T01:36:44.074Z,59.81
2023-01-11T01:37:45.644Z,59.94
2023-01-11T01:38:47.269Z,59.10
2023-01-11T01:39:48.909Z,59.71
2023-01-11T01:40:50.609Z,59.15
2023-01-11T01:41:52.310Z,59.85
2023-01-11T01:42:55.261Z,59.45
2023-01-11T01:43:59.199Z,59.30
2023-01-11T01:45:02.570Z,59.49
2023-01-11T01:46:04.266Z,59.55
2023-01-11T01:47:05.964Z,59.05
2023-01-11T01:48:17.030Z,59.27
2023-01-11T01:49:18.826Z,59.40
2023-01-11T01:50:26.018Z,59.18
2023-01-11T01:51:34.969Z,58.46
2023-01-11T01:52:36.726Z,58.97
2023-01-11T01:53:43.531Z,59.45
2023-01-11T01:54:48.304Z,59.61
2023-01-11T01:55:54.887Z,59.48
2023-01-11T01:57:00.868Z,59.70
2023-01-11T01:58:06.794Z,59.42
2023-01-11T01:59:14.017Z,59.45
2023-01-11T02:00:16.050Z,59.31
2023-01-11T02:01:36.583Z,59.21
2023-01-11T02:02:40.935Z,58.91
2023-01-11T02:03:43.059Z,58.99
2023-01-11T02:04:48.294Z,59.59
2023-01-11T02:05:51.896Z,58.88
2023-01-11T02:07:08.831Z,59.35
2023-01-11T02:08:19.747Z,59.40
2023-01-11T02:09:29.578Z,59.37
2023-01-11T02:10:32.788Z,59.32
2023-01-11T02:11:34.954Z,59.16
2023-01-11T02:13:05.481Z,59.48
2023-01-11T02:14:12.942Z,58.95
2023-01-11T02:15:16.483Z,59.19
2023-01-11T02:16:18.206Z,58.46
2023-01-11T02:17:19.885Z,58.63
2023-01-11T02:18:21.741Z,58.88
2023-01-11T02:19:37.954Z,58.81
2023-01-11T02:21:15.445Z,58.54
2023-01-11T02:22:44.991Z,59.21
2023-01-11T02:24:11.052Z,59.59
2023-01-11T02:25:24.640Z,61.39
2023-01-11T02:27:01.383Z,62.81
2023-01-11T02:28:13.017Z,63.85
2023-01-11T02:29:26.765Z,64.68
2023-01-11T02:30:46.882Z,64.67
2023-01-11T02:32:10.451Z,64.83
2023-01-11T02:33:11.999Z,65.16
2023-01-11T02:34:19.732Z,65.75
2023-01-11T02:35:36.553Z,65.16
2023-01-11T02:36:38.091Z,65.19
2023-01-11T02:37:51.507Z,65.11
2023-01-11T02:39:02.530Z,65.14
2023-01-11T02:40:19.429Z,65.39
2023-01-11T02:42:27.193Z,65.39
2023-01-11T02:43:50.750Z,65.70
2023-01-11T02:45:14.284Z,65.54
2023-01-11T02:46:23.687Z,65.73
2023-01-11T02:47:49.294Z,65.57
2023-01-11T02:49:05.167Z,65.24
2023-01-11T02:50:33.611Z,65.48
2023-01-11T02:51:41.750Z,65.56
2023-01-11T02:53:12.907Z,65.33
2023-01-11T02:54:18.642Z,64.94
2023-01-11T02:55:27.425Z,65.17
2023-01-11T02:56:33.701Z,65.44
2023-01-11T02:57:39.710Z,65.37
2023-01-11T02:58:44.820Z,65.03
2023-01-11T02:59:51.198Z,65.18
2023-01-11T03:00:55.895Z,64.90
2023-01-11T03:01:57.561Z,65.16
2023-01-11T03:03:15.418Z,65.26
2023-01-11T03:04:35.654Z,65.54
2023-01-11T03:05:44.468Z,65.05
2023-01-11T03:06:47.701Z,65.02
2023-01-11T03:08:07.323Z,65.54
2023-01-11T03:09:08.851Z,65.06
2023-01-11T03:10:39.563Z,65.08
2023-01-11T03:12:28.515Z,65.34
2023-01-11T03:13:30.081Z,65.53
2023-01-11T03:14:50.542Z,64.60
2023-01-11T03:16:20.336Z,64.46
2023-01-11T03:17:31.242Z,64.68
2023-01-11T03:18:33.515Z,64.77
2023-01-11T03:19:44.971Z,64.75
2023-01-11T03:21:27.702Z,65.19
2023-01-11T03:22:43.420Z,65.28
2023-01-11T03:24:27.827Z,65.78
2023-01-11T03:25:48.187Z,65.32
2023-01-11T03:27:02.339Z,65.33
2023-01-11T03:28:31.913Z,65.31
2023-01-11T03:29:39.851Z,65.51
2023-01-11T03:30:50.749Z,65.72
2023-01-11T03:31:55.041Z,65.25
2023-01-11T03:33:12.852Z,65.14
2023-01-11T03:34:28.122Z,65.08
2023-01-11T03:35:47.018Z,65.21
2023-01-11T03:36:55.695Z,65.48
2023-01-11T03:38:13.963Z,65.85
2023-01-11T03:39:36.226Z,65.04
2023-01-11T03:40:43.223Z,64.87
2023-01-11T03:41:48.637Z,65.34
2023-01-11T03:43:12.030Z,65.18
2023-01-11T03:44:16.182Z,65.36
2023-01-11T03:45:17.872Z,64.97
2023-01-11T03:46:27.534Z,65.31
2023-01-11T03:47:30.650Z,65.21
2023-01-11T03:48:50.769Z,65.61
2023-01-11T03:49:56.820Z,65.13
2023-01-11T03:51:00.263Z,65.19
2023-01-11T03:52:05.453Z,65.55
2023-01-11T03:53:08.564Z,65.30
2023-01-11T03:54:13.767Z,65.21
2023-01-11T03:55:17.252Z,65.02
2023-01-11T03:56:23.662Z,65.25
2023-01-11T03:57:36.051Z,65.64
2023-01-11T03:58:37.739Z,65.82
2023-01-11T03:59:40.418Z,65.52
2023-01-11T04:00:42.295Z,65.07
2023-01-11T04:01:44.333Z,64.77
2023-01-11T04:02:45.977Z,64.27
2023-01-11T04:03:47.567Z,64.53
2023-01-11T04:04:49.172Z,64.89
2023-01-11T04:05:54.201Z,65.34
2023-01-11T04:06:55.911Z,65.03
2023-01-11T04:07:57.598Z,64.51
2023-01-11T04:08:59.191Z,64.21
2023-01-11T04:10:00.902Z,64.19
2023-01-11T04:11:04.745Z,64.01
2023-01-11T04:12:06.636Z,62.80
2023-01-11T04:13:08.255Z,62.51
2023-01-11T04:14:09.914Z,62.03
2023-01-11T04:15:13.231Z,60.89
2023-01-11T04:16:14.913Z,60.45
2023-01-11T04:17:16.555Z,61.08
2023-01-11T04:18:18.174Z,61.53
2023-01-11T04:19:19.757Z,62.86
2023-01-11T04:20:21.345Z,62.72
2023-01-11T04:21:22.953Z,61.85
2023-01-11T04:22:24.560Z,62.67
2023-01-11T04:23:26.222Z,63.33
2023-01-11T04:24:27.858Z,63.03
2023-01-11T04:25:29.503Z,63.27
2023-01-11T04:26:31.093Z,63.38
2023-01-11T04:27:32.710Z,63.87
2023-01-11T04:28:34.853Z,64.11
2023-01-11T04:29:36.572Z,64.16
2023-01-11T04:30:38.264Z,63.95
2023-01-11T04:31:39.872Z,64.59
2023-01-11T04:32:41.453Z,64.21
2023-01-11T04:33:43.051Z,64.46
2023-01-11T04:34:44.640Z,64.45
2023-01-11T04:35:46.230Z,64.89
2023-01-11T04:36:47.850Z,64.80
2023-01-11T04:37:52.855Z,64.04
2023-01-11T04:38:54.579Z,63.74
2023-01-11T04:39:56.227Z,64.09
2023-01-11T04:41:17.753Z,64.21
2023-01-11T04:42:19.433Z,63.53
2023-01-11T04:43:21.068Z,63.17
2023-01-11T04:44:22.831Z,62.88
2023-01-11T04:45:24.441Z,63.02
2023-01-11T04:46:26.118Z,63.06
2023-01-11T04:47:27.718Z,63.37
2023-01-11T04:48:29.349Z,63.48
2023-01-11T04:49:31.042Z,62.52
2023-01-11T04:50:32.677Z,62.20
2023-01-11T04:51:34.299Z,62.40
2023-01-11T04:52:35.971Z,62.39
2023-01-11T04:53:37.738Z,62.31
2023-01-11T04:54:40.117Z,61.86
2023-01-11T04:55:41.713Z,61.01
2023-01-11T04:56:43.454Z,60.83
2023-01-11T04:57:46.118Z,60.17
2023-01-11T04:58:47.723Z,60.70
2023-01-11T04:59:49.407Z,60.90
2023-01-11T05:00:51.060Z,60.69
2023-01-11T05:01:52.730Z,59.48
2023-01-11T05:02:54.309Z,58.89
2023-01-11T05:03:55.921Z,58.45
2023-01-11T05:04:57.638Z,58.63
2023-01-11T05:06:01.097Z,58.28
2023-01-11T05:07:02.971Z,58.05
2023-01-11T05:08:04.823Z,57.83
2023-01-11T05:09:12.065Z,58.24
2023-01-11T05:10:13.768Z,57.74
2023-01-11T05:11:16.805Z,57.94
2023-01-11T05:12:18.633Z,58.80
2023-01-11T05:13:20.418Z,58.69
2023-01-11T05:14:22.144Z,58.15
2023-01-11T05:15:23.846Z,58.22
2023-01-11T05:16:25.980Z,57.38
2023-01-11T05:17:27.736Z,57.18
2023-01-11T05:18:29.457Z,57.94
2023-01-11T05:19:31.174Z,58.22
2023-01-11T05:20:32.874Z,57.70
2023-01-11T05:21:37.617Z,58.52
2023-01-11T05:22:39.306Z,58.50
2023-01-11T05:23:42.014Z,58.47
2023-01-11T05:24:43.728Z,58.84
2023-01-11T05:25:46.423Z,58.29
2023-01-11T05:26:50.256Z,58.73
2023-01-11T05:27:51.955Z,58.60
2023-01-11T05:28:55.290Z,58.50
2023-01-11T05:29:57.013Z,58.44
2023-01-11T05:30:58.712Z,58.36
2023-01-11T05:32:00.488Z,58.47
2023-01-11T05:33:02.481Z,58.06
2023-01-11T05:34:07.040Z,58.26
2023-01-11T05:35:11.295Z,58.77
2023-01-11T05:36:18.784Z,59.16
2023-01-11T05:37:20.464Z,59.25
2023-01-11T05:38:22.161Z,59.98
2023-01-11T05:39:24.069Z,60.26
2023-01-11T05:40:25.783Z,59.75
2023-01-11T05:41:28.061Z,60.02
2023-01-11T05:42:29.789Z,60.16
2023-01-11T05:43:33.537Z,59.41
2023-01-11T05:44:53.960Z,59.74
2023-01-11T05:45:56.790Z,59.46
2023-01-11T05:46:58.686Z,59.99
2023-01-11T05:48:00.529Z,59.41
2023-01-11T05:49:02.724Z,59.11
2023-01-11T05:50:04.785Z,58.73
2023-01-11T05:51:06.496Z,59.52
2023-01-11T05:52:08.232Z,59.10
2023-01-11T05:53:10.375Z,58.52
2023-01-11T05:54:14.312Z,59.08
2023-01-11T05:55:16.352Z,59.02
2023-01-11T05:56:18.038Z,58.73
2023-01-11T05:57:19.734Z,59.58
2023-01-11T05:58:22.592Z,58.62
2023-01-11T05:59:24.312Z,58.51
2023-01-11T06:00:26.068Z,59.04
2023-01-11T06:01:27.851Z,58.96
2023-01-11T06:02:29.680Z,59.00
2023-01-11T06:03:31.774Z,58.11
2023-01-11T06:04:33.585Z,58.23
2023-01-11T06:05:35.400Z,58.25
2023-01-11T06:06:37.221Z,57.90
2023-01-11T06:07:39.020Z,57.74
2023-01-11T06:08:40.801Z,58.21
2023-01-11T06:09:42.507Z,58.24
2023-01-11T06:10:50.425Z,58.38
2023-01-11T06:11:52.102Z,58.61
2023-01-11T06:13:13.815Z,58.17
2023-01-11T06:14:15.512Z,58.12
2023-01-11T06:15:17.197Z,58.33
2023-01-11T06:16:20.442Z,57.84
2023-01-11T06:17:22.149Z,57.87
2023-01-11T06:18:23.889Z,58.01
2023-01-11T06:19:25.578Z,58.04
2023-01-11T06:20:27.267Z,57.91
2023-01-11T06:21:29.060Z,58.38
2023-01-11T06:22:30.758Z,57.88
2023-01-11T06:23:34.292Z,57.46
2023-01-11T06:24:35.999Z,57.72
2023-01-11T06:25:37.753Z,58.01
2023-01-11T06:26:39.464Z,57.79
2023-01-11T06:27:41.175Z,58.23
2023-01-11T06:28:43.731Z,57.91
2023-01-11T06:29:45.458Z,57.70
2023-01-11T06:30:54.955Z,57.20
2023-01-11T06:31:58.324Z,57.39
2023-01-11T06:33:07.004Z,57.78
2023-01-11T06:34:08.708Z,57.62
2023-01-11T06:35:12.301Z,57.88
2023-01-11T06:36:14.922Z,57.94
2023-01-11T06:37:16.655Z,57.74
2023-01-11T06:38:20.079Z,57.73
2023-01-11T06:39:21.765Z,57.50
2023-01-11T06:40:23.521Z,57.81
2023-01-11T06:41:25.304Z,58.09
2023-01-11T06:42:27.001Z,57.88
2023-01-11T06:43:30.679Z,58.19
2023-01-11T06:44:32.400Z,58.10
2023-01-11T06:45:34.440Z,57.87
2023-01-11T06:46:36.185Z,58.19
2023-01-11T06:47:37.907Z,57.66
2023-01-11T06:48:39.759Z,58.30
2023-01-11T06:49:41.514Z,58.26
2023-01-11T06:50:43.418Z,58.33
2023-01-11T06:51:45.141Z,58.21
2023-01-11T06:53:01.995Z,58.16
2023-01-11T06:54:03.823Z,58.47
2023-01-11T06:55:06.091Z,57.81
2023-01-11T06:56:14.060Z,57.63
2023-01-11T06:57:15.750Z,57.55
2023-01-11T06:58:17.549Z,58.20
2023-01-11T06:59:19.593Z,58.03
2023-01-11T07:00:22.217Z,58.23
2023-01-11T07:01:26.202Z,58.00
2023-01-11T07:02:28.071Z,58.24
2023-01-11T07:03:29.972Z,57.87
2023-01-11T07:04:31.984Z,58.39
2023-01-11T07:05:35.567Z,57.45
2023-01-11T07:06:37.374Z,58.06
2023-01-11T07:07:40.241Z,58.16
2023-01-11T07:08:42.833Z,57.61
2023-01-11T07:09:44.552Z,57.43
2023-01-11T07:10:46.607Z,57.74
2023-01-11T07:11:48.309Z,57.68
2023-01-11T07:12:50.227Z,57.48
2023-01-11T07:13:51.936Z,57.34
2023-01-11T07:14:53.627Z,56.88
2023-01-11T07:15:57.776Z,57.96
2023-01-11T07:16:59.589Z,58.00
2023-01-11T07:18:01.299Z,58.08
2023-01-11T07:19:03.096Z,57.84
2023-01-11T07:20:06.668Z,57.54
2023-01-11T07:21:08.443Z,57.80
2023-01-11T07:22:10.213Z,58.56
2023-01-11T07:23:12.182Z,56.77
2023-01-11T07:24:14.020Z,56.94
2023-01-11T07:25:15.846Z,57.08
2023-01-11T07:26:17.612Z,56.88
2023-01-11T07:27:22.659Z,57.82
2023-01-11T07:28:24.383Z,56.58
2023-01-11T07:29:26.080Z,55.87
2023-01-11T07:30:29.686Z,54.83
2023-01-11T07:31:31.544Z,54.41
2023-01-11T07:32:33.249Z,54.85
2023-01-11T07:33:35.018Z,54.39
2023-01-11T07:34:37.749Z,54.63
2023-01-11T07:35:39.439Z,54.81
2023-01-11T07:36:41.145Z,55.53
2023-01-11T07:37:43.025Z,56.38
2023-01-11T07:38:44.878Z,55.58
2023-01-11T07:39:46.833Z,55.36
2023-01-11T07:40:48.592Z,53.91
2023-01-11T07:42:08.671Z,54.29
2023-01-11T07:43:15.977Z,52.14
2023-01-11T07:44:17.951Z,51.20
2023-01-11T07:45:19.706Z,51.50
2023-01-11T07:46:21.618Z,51.15
2023-01-11T07:47:23.398Z,52.60
2023-01-11T07:48:26.767Z,53.34
2023-01-11T07:49:29.033Z,48.54
2023-01-11T07:50:31.979Z,49.14
2023-01-11T07:51:35.101Z,48.47
2023-01-11T07:52:36.823Z,48.15
2023-01-11T07:53:38.576Z,48.37
2023-01-11T07:54:40.284Z,48.44
2023-01-11T07:55:42.751Z,48.40
2023-01-11T07:56:44.686Z,47.95
2023-01-11T07:57:46.443Z,48.50
2023-01-11T07:58:48.222Z,49.07
2023-01-11T07:59:49.917Z,49.16
2023-01-11T08:00:51.635Z,48.48
2023-01-11T08:01:53.360Z,48.67
2023-01-11T08:02:55.137Z,48.50
2023-01-11T08:03:57.597Z,48.66
2023-01-11T08:04:59.799Z,48.33
2023-01-11T08:06:02.446Z,47.86
2023-01-11T08:07:04.168Z,48.19
2023-01-11T08:08:06.484Z,49.31
2023-01-11T08:09:10.121Z,48.21
2023-01-11T08:10:12.491Z,48.70
2023-01-11T08:11:32.769Z,48.21
2023-01-11T08:12:53.300Z,48.46
2023-01-11T08:14:13.747Z,47.54
2023-01-11T08:15:15.478Z,47.99
2023-01-11T08:16:17.209Z,48.26
2023-01-11T08:17:18.969Z,48.54
2023-01-11T08:18:20.661Z,49.16
2023-01-11T08:19:22.462Z,48.51
2023-01-11T08:20:24.222Z,49.17
2023-01-11T08:21:25.898Z,48.80
2023-01-11T08:22:27.615Z,50.05
2023-01-11T08:23:31.259Z,49.70
2023-01-11T08:24:34.784Z,49.05
2023-01-11T08:25:37.413Z,48.23
2023-01-11T08:26:39.180Z,48.92
2023-01-11T08:27:40.887Z,48.48
2023-01-11T08:28:43.768Z,49.13
2023-01-11T08:29:45.579Z,48.27
2023-01-11T08:30:47.324Z,48.81
2023-01-11T08:31:49.535Z,48.67
2023-01-11T08:32:51.291Z,49.12
2023-01-11T08:33:53.204Z,48.91
2023-01-11T08:34:54.946Z,49.60
2023-01-11T08:35:56.669Z,48.81
2023-01-11T08:36:58.472Z,48.69
2023-01-11T08:38:00.172Z,48.98
2023-01-11T08:39:01.924Z,49.45
2023-01-11T08:40:04.260Z,48.30
2023-01-11T08:41:10.926Z,48.89
2023-01-11T08:42:12.677Z,48.45
2023-01-11T08:43:14.381Z,47.48
2023-01-11T08:44:29.189Z,47.63
2023-01-11T08:45:34.987Z,47.56
2023-01-11T08:46:38.170Z,46.75
2023-01-11T08:47:39.985Z,47.10
2023-01-11T08:48:42.230Z,47.86
2023-01-11T08:49:44.082Z,46.29
2023-01-11T08:50:45.906Z,45.82
2023-01-11T08:51:47.643Z,45.90
2023-01-11T08:52:51.377Z,46.91
2023-01-11T08:53:53.386Z,46.47
2023-01-11T08:54:55.105Z,47.02
2023-01-11T08:55:56.842Z,47.28
2023-01-11T08:56:58.545Z,46.88
2023-01-11T08:58:00.258Z,46.06
2023-01-11T08:59:02.617Z,46.36
2023-01-11T09:00:05.467Z,47.17
2023-01-11T09:01:09.251Z,46.79
2023-01-11T09:02:12.514Z,46.14
2023-01-11T09:03:15.173Z,46.75
2023-01-11T09:04:24.810Z,47.13
2023-01-11T09:05:27.240Z,48.67
2023-01-11T09:06:28.970Z,49.26
2023-01-11T09:07:30.691Z,49.18
2023-01-11T09:08:32.419Z,49.38
2023-01-11T09:09:34.199Z,50.26
2023-01-11T09:10:36.022Z,50.34
2023-01-11T09:11:57.019Z,51.31
2023-01-11T09:12:59.488Z,49.54
2023-01-11T09:14:01.239Z,48.39
2023-01-11T09:15:06.105Z,49.39
2023-01-11T09:16:08.182Z,50.73
2023-01-11T09:17:10.197Z,50.49
2023-01-11T09:18:11.987Z,50.40
2023-01-11T09:19:13.766Z,52.07
2023-01-11T09:20:16.191Z,52.64
2023-01-11T09:21:17.996Z,51.99
2023-01-11T09:22:19.697Z,51.08
2023-01-11T09:23:21.430Z,52.15
2023-01-11T09:24:23.247Z,51.69
2023-01-11T09:25:25.235Z,50.92
2023-01-11T09:26:26.924Z,49.33
2023-01-11T09:27:28.607Z,50.07
2023-01-11T09:28:30.320Z,49.56
2023-01-11T09:29:32.263Z,48.83
2023-01-11T09:30:34.178Z,50.16
2023-01-11T09:31:36.042Z,49.79
2023-01-11T09:32:37.793Z,50.21
2023-01-11T09:33:39.630Z,50.81
2023-01-11T09:34:43.287Z,50.87
2023-01-11T09:35:47.108Z,50.51
2023-01-11T09:36:49.211Z,50.95
2023-01-11T09:37:54.008Z,50.78
2023-01-11T09:38:57.943Z,49.01
2023-01-11T09:40:00.133Z,48.93
2023-01-11T09:41:31.138Z,49.19
2023-01-11T09:42:37.731Z,49.02
2023-01-11T09:43:50.829Z,47.98
2023-01-11T09:44:57.389Z,48.16
2023-01-11T09:46:06.778Z,48.39
2023-01-11T09:47:51.209Z,49.04
2023-01-11T09:48:58.332Z,48.31
2023-01-11T09:50:06.983Z,49.78
2023-01-11T09:51:12.619Z,49.49
2023-01-11T09:52:26.321Z,49.21
2023-01-11T09:53:34.885Z,49.23
2023-01-11T09:54:36.876Z,48.14
2023-01-11T09:55:42.423Z,48.34
2023-01-11T09:56:53.750Z,47.93
2023-01-11T09:57:59.443Z,47.83
2023-01-11T09:59:06.985Z,47.07
2023-01-11T10:00:12.259Z,47.29
2023-01-11T10:01:16.965Z,46.65
2023-01-11T10:02:24.905Z,47.83
2023-01-11T10:03:35.667Z,47.63
2023-01-11T10:04:39.131Z,47.94
2023-01-11T10:06:09.212Z,47.89
2023-01-11T10:07:17.299Z,49.04
2023-01-11T10:18:26.727Z,49.74
2023-01-11T10:18:32.376Z,48.17
2023-01-11T10:18:39.290Z,48.38
2023-01-11T10:19:40.552Z,47.71
2023-01-11T10:20:51.754Z,47.50
2023-01-11T10:22:02.233Z,48.08
2023-01-11T10:23:32.256Z,48.63
2023-01-11T10:24:43.732Z,47.87
2023-01-11T10:25:51.771Z,47.80
2023-01-11T10:26:59.657Z,48.17
2023-01-11T10:28:28.252Z,47.71
2023-01-11T10:29:53.899Z,46.55
2023-01-11T10:30:59.296Z,46.73
2023-01-11T10:32:02.195Z,47.05
2023-01-11T10:33:45.483Z,46.32
2023-01-11T10:35:05.633Z,47.08
2023-01-11T10:37:09.069Z,46.17
2023-01-11T10:38:51.053Z,46.09
2023-01-11T10:40:09.300Z,46.58
2023-01-11T10:41:33.389Z,47.11
2023-01-11T10:42:46.563Z,46.77
2023-01-11T10:44:05.253Z,46.88
2023-01-11T10:45:33.971Z,47.48
2023-01-11T10:46:44.782Z,47.68
2023-01-11T10:48:02.876Z,48.07
2023-01-11T10:49:28.610Z,47.85
2023-01-11T10:50:38.692Z,47.93
2023-01-11T10:51:46.223Z,47.80
2023-01-11T10:53:14.794Z,48.28
2023-01-11T10:54:22.348Z,49.02
2023-01-11T10:57:09.097Z,49.43
2023-01-11T10:58:16.893Z,50.06
2023-01-11T10:59:58.546Z,48.48
2023-01-11T11:01:20.694Z,47.00
2023-01-11T11:03:00.527Z,47.27
2023-01-11T11:04:17.507Z,47.69
2023-01-11T11:05:43.550Z,47.24
2023-01-11T11:07:01.461Z,47.83
2023-01-11T11:08:30.471Z,46.78
2023-01-11T11:10:02.269Z,47.59
2023-01-11T11:11:12.987Z,48.10
2023-01-11T11:12:24.122Z,46.42
2023-01-11T11:14:02.283Z,46.02
2023-01-11T11:15:25.439Z,46.57
2023-01-11T11:16:45.791Z,46.15
2023-01-11T11:17:52.073Z,46.27
2023-01-11T11:18:58.483Z,45.86
2023-01-11T11:20:00.332Z,46.63
2023-01-11T11:21:11.055Z,45.95
2023-01-11T11:22:13.422Z,46.67
2023-01-11T11:23:24.660Z,47.32
2023-01-11T11:24:33.715Z,47.67
2023-01-11T11:25:43.411Z,48.18
2023-01-11T11:26:49.813Z,47.86
2023-01-11T11:27:55.704Z,48.75
2023-01-11T11:29:03.890Z,47.71
2023-01-11T11:30:10.217Z,46.69
2023-01-11T11:31:15.210Z,47.59
2023-01-11T11:32:26.179Z,49.06
2023-01-11T11:33:36.053Z,48.94
2023-01-11T11:34:37.888Z,49.24
2023-01-11T11:35:46.953Z,48.91
2023-01-11T11:36:52.444Z,48.82
2023-01-11T11:37:54.613Z,49.11
2023-01-11T11:39:18.842Z,49.44
2023-01-11T11:40:38.077Z,50.15
2023-01-11T11:42:03.974Z,49.40
2023-01-11T11:43:33.335Z,48.18
2023-01-11T11:44:35.604Z,48.38
2023-01-11T11:45:43.031Z,48.34
2023-01-11T11:47:06.562Z,48.57
2023-01-11T11:48:10.404Z,48.81
2023-01-11T11:49:16.917Z,48.23
2023-01-11T11:50:27.420Z,48.49
2023-01-11T11:51:40.112Z,48.04
2023-01-11T11:52:42.732Z,48.38
2023-01-11T11:53:54.983Z,48.83
2023-01-11T11:54:58.347Z,48.78
2023-01-11T11:56:06.716Z,48.51
2023-01-11T11:57:28.112Z,48.79
2023-01-11T11:58:30.191Z,48.93
2023-01-11T11:59:33.371Z,49.27
2023-01-11T12:00:44.248Z,48.40
2023-01-11T12:01:48.867Z,48.36
2023-01-11T12:02:56.539Z,47.93
2023-01-11T12:04:18.399Z,48.44
2023-01-11T12:05:20.360Z,48.33
2023-01-11T12:06:28.077Z,47.72
2023-01-11T12:07:49.681Z,48.89
2023-01-11T12:08:59.046Z,48.90
2023-01-11T12:10:05.759Z,48.38
2023-01-11T12:11:13.950Z,48.60
2023-01-11T12:12:18.587Z,48.25
2023-01-11T12:13:28.091Z,48.71
2023-01-11T12:14:35.317Z,48.27
2023-01-11T12:15:37.090Z,48.44
2023-01-11T12:16:41.423Z,48.95
2023-01-11T12:17:43.700Z,48.79
2023-01-11T12:18:45.434Z,48.41
2023-01-11T12:19:47.999Z,48.86
2023-01-11T12:20:49.808Z,48.94
2023-01-11T12:21:51.683Z,49.49
2023-01-11T12:23:18.066Z,49.39
2023-01-11T12:24:20.386Z,49.77
2023-01-11T12:25:26.783Z,50.20
2023-01-11T12:26:53.808Z,49.66
2023-01-11T12:28:10.150Z,48.00
2023-01-11T12:29:26.797Z,48.25
2023-01-11T12:30:35.635Z,49.70
2023-01-11T12:31:43.303Z,49.77
2023-01-11T12:32:57.415Z,50.36
2023-01-11T12:34:17.397Z,49.91
2023-01-11T12:35:21.763Z,49.93
2023-01-11T12:36:29.482Z,49.28
2023-01-11T12:37:42.761Z,50.46
2023-01-11T12:38:53.880Z,50.22
2023-01-11T12:40:03.547Z,49.20
2023-01-11T12:41:43.910Z,49.72
2023-01-11T12:42:54.487Z,48.54
2023-01-11T12:44:09.714Z,49.60
2023-01-11T12:45:30.068Z,49.04
2023-01-11T12:46:50.283Z,49.79
2023-01-11T12:47:55.363Z,49.78
2023-01-11T12:49:14.746Z,50.04
2023-01-11T12:50:27.039Z,50.14
2023-01-11T12:52:29.197Z,49.33
2023-01-11T12:53:59.389Z,49.71
2023-01-11T12:55:21.289Z,49.63
2023-01-11T12:56:48.175Z,49.41
2023-01-11T12:58:05.341Z,49.45
2023-01-11T12:59:15.945Z,49.74
2023-01-11T13:00:32.173Z,50.85
2023-01-11T13:01:58.034Z,51.21
2023-01-11T13:03:22.641Z,51.26
2023-01-11T13:04:52.788Z,51.33
2023-01-11T13:06:14.252Z,50.48
2023-01-11T13:07:21.634Z,50.69
2023-01-11T13:08:41.698Z,51.10
2023-01-11T13:09:52.628Z,50.85
2023-01-11T13:11:35.259Z,50.50
2023-01-11T13:12:46.132Z,50.37
2023-01-11T13:14:03.264Z,49.96
2023-01-11T13:15:23.664Z,49.88
2023-01-11T13:16:33.682Z,50.50
2023-01-11T13:17:42.024Z,50.17
2023-01-11T13:18:51.251Z,50.69
2023-01-11T13:20:02.041Z,50.63
2023-01-11T13:21:44.713Z,49.64
2023-01-11T13:22:52.344Z,49.70
2023-01-11T13:23:58.795Z,49.75
2023-01-11T13:25:11.482Z,49.15
2023-01-11T13:26:21.760Z,50.36
2023-01-11T13:27:25.014Z,50.08
2023-01-11T13:28:41.141Z,49.92
2023-01-11T13:29:52.330Z,50.14
2023-01-11T13:30:54.551Z,48.68
2023-01-11T13:32:00.784Z,49.64
2023-01-11T13:33:12.839Z,49.91
2023-01-11T13:34:22.899Z,49.62
2023-01-11T13:35:37.492Z,49.19
2023-01-11T13:36:44.212Z,48.92
2023-01-11T13:38:11.112Z,49.05
2023-01-11T13:39:22.081Z,49.97
2023-01-11T13:40:34.730Z,48.58
2023-01-11T13:41:50.910Z,49.70
2023-01-11T13:43:20.295Z,49.25
2023-01-11T13:44:31.047Z,49.33
2023-01-11T13:45:40.351Z,49.65
2023-01-11T13:46:56.981Z,50.10
2023-01-11T13:48:06.568Z,49.92
2023-01-11T13:49:21.035Z,50.34
2023-01-11T13:50:29.873Z,49.71
2023-01-11T13:51:42.682Z,50.52
2023-01-11T13:52:54.887Z,49.77
2023-01-11T13:54:03.293Z,50.38
2023-01-11T13:55:27.151Z,49.86
2023-01-11T13:56:39.943Z,49.37
2023-01-11T13:58:07.751Z,49.95
2023-01-11T13:59:16.786Z,50.18
2023-01-11T14:00:32.898Z,50.33
2023-01-11T14:01:54.821Z,49.90
2023-01-11T14:03:15.411Z,50.25
2023-01-11T14:04:23.233Z,50.01
2023-01-11T14:05:28.107Z,50.66
2023-01-11T14:06:42.959Z,50.60
2023-01-11T14:08:04.730Z,50.30
2023-01-11T14:09:30.637Z,50.68
2023-01-11T14:10:35.119Z,49.68
2023-01-11T14:11:58.734Z,50.21
2023-01-11T14:13:39.105Z,50.58
2023-01-11T14:14:48.487Z,49.69
2023-01-11T14:16:23.093Z,50.10
2023-01-11T14:17:43.971Z,50.78
2023-01-11T14:19:00.058Z,50.87
2023-01-11T14:20:01.787Z,50.03
2023-01-11T14:21:07.616Z,50.66
2023-01-11T14:22:09.277Z,50.64
2023-01-11T14:23:13.478Z,50.71
2023-01-11T14:24:19.679Z,50.81
2023-01-11T14:25:21.460Z,51.42
2023-01-11T14:26:25.835Z,51.02
2023-01-11T14:27:54.303Z,50.82
2023-01-11T14:29:25.703Z,51.49
2023-01-11T14:30:49.032Z,50.76
2023-01-11T14:32:01.900Z,51.06
2023-01-11T14:33:15.269Z,50.73
2023-01-11T14:34:34.692Z,50.56
2023-01-11T14:36:07.836Z,50.20
2023-01-11T14:37:12.433Z,50.50
2023-01-11T14:38:37.521Z,50.47
2023-01-11T14:40:10.258Z,51.02
2023-01-11T14:41:29.978Z,51.38
2023-01-11T14:43:08.811Z,51.08
2023-01-11T14:44:13.151Z,52.06